createdAt,value
2018-01-14T00:02:41.743Z,44.62
2018-01-14T00:05:42.723Z,44.75
2018-01-14T00:08:43.672Z,45.21
2018-01-14T00:11:44.667Z,45.18
2018-01-14T00:14:45.635Z,44.81
2018-01-14T00:17:46.639Z,45.14
2018-01-14T00:20:47.586Z,44.99
2018-01-14T00:23:48.562Z,44.68
2018-01-14T00:26:49.491Z,45.14
2018-01-14T00:29:50.501Z,44.81
2018-01-14T00:32:51.438Z,45.09
2018-01-14T00:35:52.464Z,45.00
2018-01-14T00:38:53.479Z,44.80
2018-01-14T00:41:54.479Z,44.94
2018-01-14T00:44:55.502Z,44.82
2018-01-14T00:47:56.486Z,44.87
2018-01-14T00:50:57.435Z,45.12
2018-01-14T00:53:58.462Z,44.86
2018-01-14T00:56:59.426Z,45.12
2018-01-14T01:00:00.370Z,44.70
2018-01-14T01:03:01.379Z,44.84
2018-01-14T01:06:02.543Z,45.04
2018-01-14T01:09:03.825Z,45.01
2018-01-14T01:12:04.959Z,44.71
2018-01-14T01:15:05.929Z,44.70
2018-01-14T01:18:06.859Z,44.99
2018-01-14T01:21:07.854Z,44.75
2018-01-14T01:24:08.862Z,44.97
2018-01-14T01:27:09.856Z,44.96
2018-01-14T01:30:10.782Z,44.68
2018-01-14T01:33:11.762Z,44.80
2018-01-14T01:36:12.694Z,44.76
2018-01-14T01:39:13.863Z,44.65
2018-01-14T01:42:14.826Z,45.15
2018-01-14T01:45:15.843Z,44.96
2018-01-14T01:48:16.826Z,44.88
2018-01-14T01:51:17.779Z,44.70
2018-01-14T01:54:18.759Z,44.68
2018-01-14T01:57:19.703Z,44.82
2018-01-14T02:00:20.690Z,45.02
2018-01-14T02:03:21.798Z,44.65
2018-01-14T02:06:23.295Z,45.04
2018-01-14T02:09:24.274Z,45.05
2018-01-14T02:12:25.254Z,44.74
2018-01-14T02:15:26.282Z,44.68
2018-01-14T02:18:27.295Z,44.74
2018-01-14T02:21:28.324Z,44.72
2018-01-14T02:24:29.292Z,45.18
2018-01-14T02:27:30.233Z,45.24
2018-01-14T02:30:31.218Z,44.50
2018-01-14T02:33:32.238Z,45.08
2018-01-14T02:36:33.219Z,45.02
2018-01-14T02:39:34.227Z,45.03
2018-01-14T02:42:35.199Z,44.80
2018-01-14T02:45:36.142Z,44.92
2018-01-14T02:48:37.139Z,45.01
2018-01-14T02:51:38.115Z,44.81
2018-01-14T02:54:39.099Z,45.01
2018-01-14T02:57:40.043Z,44.73
2018-01-14T03:00:41.286Z,44.98
2018-01-14T03:03:42.194Z,45.19
2018-01-14T03:06:43.191Z,44.89
2018-01-14T03:09:44.307Z,45.10
2018-01-14T03:12:45.214Z,44.98
2018-01-14T03:15:46.224Z,45.09
2018-01-14T03:18:47.254Z,44.65
2018-01-14T03:21:48.234Z,44.94
2018-01-14T03:24:49.406Z,44.99
2018-01-14T03:27:50.399Z,44.84
2018-01-14T03:30:51.387Z,45.16
2018-01-14T03:33:52.367Z,45.04
2018-01-14T03:36:53.364Z,45.00
2018-01-14T03:39:54.283Z,44.87
2018-01-14T03:42:55.278Z,44.76
2018-01-14T03:45:56.239Z,45.01
2018-01-14T03:48:57.235Z,44.80
2018-01-14T03:51:58.193Z,44.68
2018-01-14T03:54:59.178Z,44.79
2018-01-14T03:58:00.132Z,44.66
2018-01-14T04:01:01.132Z,44.67
2018-01-14T04:04:02.106Z,44.69
2018-01-14T04:07:03.050Z,44.72
2018-01-14T04:10:04.294Z,44.70
2018-01-14T04:13:05.202Z,44.99
2018-01-14T04:16:06.127Z,45.07
2018-01-14T04:19:07.083Z,45.21
2018-01-14T04:22:08.051Z,44.84
2018-01-14T04:25:08.990Z,45.17
2018-01-14T04:28:10.000Z,45.09
2018-01-14T04:31:10.971Z,44.63
2018-01-14T04:34:12.022Z,45.17
2018-01-14T04:37:13.019Z,45.01
2018-01-14T04:40:13.990Z,44.62
2018-01-14T04:43:14.958Z,45.12
2018-01-14T04:46:15.940Z,44.82
2018-01-14T04:49:16.906Z,44.60
2018-01-14T04:52:17.909Z,44.99
2018-01-14T04:55:18.859Z,44.79
2018-01-14T04:58:20.649Z,44.76
2018-01-14T05:01:21.624Z,44.79
2018-01-14T05:04:22.618Z,44.88
2018-01-14T05:07:23.554Z,44.67
2018-01-14T05:10:24.546Z,44.98
2018-01-14T05:13:25.562Z,45.15
2018-01-14T05:16:26.507Z,44.69
2018-01-14T05:19:27.451Z,44.58
2018-01-14T05:22:28.502Z,44.74
2018-01-14T05:25:29.507Z,45.02
2018-01-14T05:28:30.503Z,44.51
2018-01-14T05:31:31.451Z,44.40
2018-01-14T05:34:32.706Z,44.77
2018-01-14T05:37:33.710Z,44.36
2018-01-14T05:40:34.838Z,44.56
2018-01-14T05:43:35.754Z,44.30
2018-01-14T05:46:37.776Z,44.19
2018-01-14T05:49:38.739Z,44.52
2018-01-14T05:52:39.727Z,44.67
2018-01-14T05:55:40.675Z,44.52
2018-01-14T05:58:42.686Z,44.15
2018-01-14T06:01:43.810Z,44.62
2018-01-14T06:04:44.826Z,44.19
2018-01-14T06:07:45.850Z,44.50
2018-01-14T06:10:46.790Z,44.62
2018-01-14T06:13:47.771Z,44.12
2018-01-14T06:16:48.728Z,44.09
2018-01-14T06:19:49.746Z,44.45
2018-01-14T06:22:50.666Z,44.53
2018-01-14T06:25:51.686Z,44.43
2018-01-14T06:28:52.619Z,44.14
2018-01-14T06:31:53.638Z,44.30
2018-01-14T06:34:54.562Z,44.45
2018-01-14T06:37:55.614Z,44.06
2018-01-14T06:40:56.639Z,44.37
2018-01-14T06:43:57.581Z,44.37
2018-01-14T06:46:58.586Z,44.39
2018-01-14T06:49:59.559Z,44.04
2018-01-14T06:53:00.518Z,44.03
2018-01-14T06:56:01.519Z,44.21
2018-01-14T06:59:02.464Z,44.45
2018-01-14T07:02:03.455Z,43.95
2018-01-14T07:05:04.402Z,44.36
2018-01-14T07:08:05.419Z,44.22
2018-01-14T07:11:06.367Z,44.12
2018-01-14T07:14:07.441Z,44.10
2018-01-14T07:17:08.424Z,44.33
2018-01-14T07:20:09.398Z,44.40
2018-01-14T07:23:10.363Z,44.10
2018-01-14T07:26:11.355Z,44.34
2018-01-14T07:29:12.317Z,44.24
2018-01-14T07:32:13.303Z,43.97
2018-01-14T07:35:14.265Z,44.10
2018-01-14T07:38:15.260Z,44.12
2018-01-14T07:41:16.201Z,44.39
2018-01-14T07:44:17.211Z,44.09
2018-01-14T07:47:18.147Z,43.96
2018-01-14T07:50:19.186Z,44.33
2018-01-14T07:53:20.260Z,44.25
2018-01-14T07:56:21.223Z,44.25
2018-01-14T07:59:22.166Z,44.05
2018-01-14T08:02:23.171Z,44.25
2018-01-14T08:05:24.308Z,43.97
2018-01-14T08:08:25.192Z,44.30
2018-01-14T08:11:26.187Z,44.32
2018-01-14T08:14:27.131Z,43.95
2018-01-14T08:17:29.172Z,44.33
2018-01-14T08:20:30.094Z,43.81
2018-01-14T08:23:31.113Z,43.90
2018-01-14T08:26:32.055Z,44.18
2018-01-14T08:29:33.055Z,43.78
2018-01-14T08:32:34.171Z,44.11
2018-01-14T08:35:35.109Z,43.88
2018-01-14T08:38:36.089Z,43.74
2018-01-14T08:41:37.038Z,44.06
2018-01-14T08:44:38.039Z,43.97
2018-01-14T08:47:38.986Z,44.00
2018-01-14T08:50:39.998Z,44.10
2018-01-14T08:53:40.902Z,43.74
2018-01-14T08:56:41.817Z,43.87
2018-01-14T08:59:42.711Z,43.97
2018-01-14T09:02:43.690Z,44.14
2018-01-14T09:05:44.645Z,43.89
2018-01-14T09:08:45.668Z,43.95
2018-01-14T09:11:46.686Z,44.01
2018-01-14T09:14:48.710Z,43.98
2018-01-14T09:17:49.659Z,43.99
2018-01-14T09:20:50.675Z,43.76
2018-01-14T09:23:51.722Z,44.08
2018-01-14T09:26:52.758Z,43.66
2018-01-14T09:29:53.682Z,43.81
2018-01-14T09:32:54.667Z,43.39
2018-01-14T09:35:55.614Z,43.52
2018-01-14T09:38:56.762Z,44.04
2018-01-14T09:41:57.847Z,44.39
2018-01-14T09:44:59.031Z,43.89
2018-01-14T09:48:00.072Z,43.78
2018-01-14T09:51:01.038Z,44.18
2018-01-14T09:54:02.010Z,44.10
2018-01-14T09:57:02.955Z,44.38
2018-01-14T10:00:03.955Z,44.35
2018-01-14T10:03:04.942Z,44.32
2018-01-14T10:06:05.882Z,44.04
2018-01-14T10:09:06.879Z,43.94
2018-01-14T10:12:07.838Z,44.00
2018-01-14T10:15:08.855Z,43.73
2018-01-14T10:18:09.790Z,43.70
2018-01-14T10:21:11.004Z,44.02
2018-01-14T10:24:11.939Z,43.98
2018-01-14T10:27:12.956Z,44.18
2018-01-14T10:30:13.887Z,44.04
2018-01-14T10:33:14.906Z,44.27
2018-01-14T10:36:15.872Z,44.19
2018-01-14T10:39:16.831Z,44.42
2018-01-14T10:42:18.075Z,44.12
2018-01-14T10:45:19.043Z,44.28
2018-01-14T10:48:20.071Z,43.71
2018-01-14T10:51:21.047Z,43.88
2018-01-14T10:54:21.999Z,43.63
2018-01-14T10:57:22.947Z,43.55
2018-01-14T11:00:24.235Z,43.71
2018-01-14T11:03:25.205Z,43.97
2018-01-14T11:06:26.317Z,43.61
2018-01-14T11:09:27.377Z,44.39
2018-01-14T11:12:28.374Z,44.21
2018-01-14T11:15:29.375Z,44.13
2018-01-14T11:18:30.324Z,42.44
2018-01-14T11:21:31.355Z,42.63
2018-01-14T11:24:32.278Z,42.76
2018-01-14T11:27:33.291Z,43.71
2018-01-14T11:30:34.223Z,43.79
2018-01-14T11:33:35.250Z,43.94
2018-01-14T11:36:36.172Z,43.90
2018-01-14T11:39:37.166Z,44.05
2018-01-14T11:42:38.119Z,44.14
2018-01-14T11:45:39.143Z,43.25
2018-01-14T11:48:40.087Z,43.60
2018-01-14T11:51:41.087Z,43.66
2018-01-14T11:54:42.040Z,42.66
2018-01-14T11:57:43.031Z,43.47
2018-01-14T12:00:44.011Z,43.45
2018-01-14T12:03:44.986Z,43.78
2018-01-14T12:06:45.880Z,43.61
2018-01-14T12:09:46.839Z,43.78
2018-01-14T12:12:47.782Z,43.45
2018-01-14T12:15:48.807Z,43.70
2018-01-14T12:18:49.695Z,43.43
2018-01-14T12:21:50.639Z,43.63
2018-01-14T12:24:51.624Z,43.44
2018-01-14T12:27:52.568Z,43.87
2018-01-14T12:30:53.470Z,43.77
2018-01-14T12:33:54.418Z,43.57
2018-01-14T12:36:55.368Z,43.35
2018-01-14T12:39:56.314Z,42.70
2018-01-14T12:42:57.300Z,42.95
2018-01-14T12:45:58.261Z,43.58
2018-01-14T12:48:59.259Z,43.32
2018-01-14T12:52:00.207Z,43.11
2018-01-14T12:55:02.319Z,43.46
2018-01-14T12:58:03.222Z,43.13
2018-01-14T13:01:04.242Z,43.13
2018-01-14T13:04:05.279Z,43.48
2018-01-14T13:07:06.221Z,43.21
2018-01-14T13:10:09.180Z,43.52
2018-01-14T13:13:10.098Z,43.56
2018-01-14T13:16:11.098Z,43.11
2018-01-14T13:19:12.463Z,43.73
2018-01-14T13:22:13.384Z,43.60
2018-01-14T13:25:14.383Z,43.38
2018-01-14T13:28:15.350Z,43.67
2018-01-14T13:31:16.323Z,43.47
2018-01-14T13:34:17.348Z,43.43
2018-01-14T13:37:18.286Z,43.80
2018-01-14T13:40:19.294Z,42.96
2018-01-14T13:43:20.219Z,43.24
2018-01-14T13:46:21.251Z,43.52
2018-01-14T13:49:22.199Z,43.38
2018-01-14T13:52:23.194Z,43.36
2018-01-14T13:55:24.138Z,44.05
2018-01-14T13:58:26.159Z,43.81
2018-01-14T14:01:27.138Z,43.71
2018-01-14T14:04:28.051Z,43.83
2018-01-14T14:07:28.988Z,43.91
2018-01-14T14:10:29.999Z,43.89
2018-01-14T14:13:31.023Z,43.97
2018-01-14T14:16:32.048Z,44.01
2018-01-14T14:19:33.368Z,43.75
2018-01-14T14:22:34.400Z,43.82
2018-01-14T14:25:35.383Z,44.06
2018-01-14T14:28:36.339Z,43.78
2018-01-14T14:31:37.382Z,44.29
2018-01-14T14:34:38.301Z,43.83
2018-01-14T14:37:39.453Z,44.17
2018-01-14T14:40:40.480Z,43.91
2018-01-14T14:43:41.416Z,44.26
2018-01-14T14:46:42.343Z,43.76
2018-01-14T14:49:43.249Z,43.88
2018-01-14T14:52:44.198Z,43.98
2018-01-14T14:55:45.171Z,43.76
2018-01-14T14:58:46.183Z,43.82
2018-01-14T15:01:47.135Z,43.44
2018-01-14T15:04:48.402Z,43.53
2018-01-14T15:07:49.322Z,43.37
2018-01-14T15:10:50.385Z,43.55
2018-01-14T15:13:51.826Z,43.79
2018-01-14T15:16:52.939Z,43.67
2018-01-14T15:19:53.879Z,44.10
2018-01-14T15:22:54.906Z,44.02
2018-01-14T15:25:55.842Z,43.99
2018-01-14T15:28:56.863Z,44.00
2018-01-14T15:31:57.806Z,44.00
2018-01-14T15:34:58.855Z,44.12
2018-01-14T15:37:59.775Z,43.82
2018-01-14T15:41:00.791Z,44.10
2018-01-14T15:44:01.763Z,43.80
2018-01-14T15:47:02.771Z,43.94
2018-01-14T15:50:03.727Z,44.16
2018-01-14T15:53:04.748Z,43.94
2018-01-14T15:56:05.702Z,43.97
2018-01-14T15:59:06.736Z,44.20
2018-01-14T16:02:07.678Z,44.23
2018-01-14T16:05:08.715Z,44.25
2018-01-14T16:08:09.662Z,44.21
2018-01-14T16:11:10.707Z,43.82
2018-01-14T16:14:11.655Z,43.86
2018-01-14T16:17:12.691Z,44.10
2018-01-14T16:20:13.635Z,43.82
2018-01-14T16:23:14.667Z,44.16
2018-01-14T16:26:15.648Z,44.20
2018-01-14T16:29:16.647Z,44.13
2018-01-14T16:32:17.659Z,43.85
2018-01-14T16:35:18.563Z,41.14
2018-01-14T16:38:19.534Z,41.29
2018-01-14T16:41:20.512Z,41.71
2018-01-14T16:44:21.503Z,41.81
2018-01-14T16:47:22.486Z,42.25
2018-01-14T16:50:23.424Z,42.64
2018-01-14T16:53:24.418Z,42.86
2018-01-14T16:56:25.368Z,42.44
2018-01-14T16:59:26.358Z,42.83
2018-01-14T17:02:27.311Z,42.93
2018-01-14T17:05:28.327Z,42.90
2018-01-14T17:08:29.267Z,43.18
2018-01-14T17:11:30.286Z,42.74
2018-01-14T17:14:31.412Z,42.81
2018-01-14T17:17:32.509Z,42.90
2018-01-14T17:20:33.471Z,43.24
2018-01-14T17:23:34.491Z,43.18
2018-01-14T17:26:35.410Z,42.86
2018-01-14T17:29:36.445Z,43.07
2018-01-14T17:32:37.349Z,43.15
2018-01-14T17:35:39.055Z,42.75
2018-01-14T17:38:39.968Z,42.25
2018-01-14T17:41:40.916Z,41.98
2018-01-14T17:44:41.842Z,41.98
2018-01-14T17:47:42.747Z,41.64
2018-01-14T17:50:43.675Z,41.28
2018-01-14T17:53:44.572Z,40.95
2018-01-14T17:56:45.499Z,40.93
2018-01-14T17:59:46.412Z,41.41
2018-01-14T18:02:47.363Z,41.06
2018-01-14T18:05:48.272Z,41.08
2018-01-14T18:08:49.193Z,41.43
2018-01-14T18:11:50.110Z,41.27
2018-01-14T18:14:51.043Z,41.38
2018-01-14T18:17:52.051Z,41.47
2018-01-14T18:20:52.951Z,41.78
2018-01-14T18:23:54.169Z,41.74
2018-01-14T18:26:55.071Z,42.18
2018-01-14T18:29:55.987Z,42.10
2018-01-14T18:32:56.879Z,42.02
2018-01-14T18:35:57.807Z,42.24
2018-01-14T18:38:58.751Z,42.11
2018-01-14T18:41:59.683Z,42.52
2018-01-14T18:45:00.591Z,42.19
2018-01-14T18:48:01.543Z,42.19
2018-01-14T18:51:02.485Z,42.56
2018-01-14T18:54:03.390Z,42.74
2018-01-14T18:57:04.353Z,42.72
2018-01-14T19:00:05.275Z,42.35
2018-01-14T19:03:06.251Z,42.02
2018-01-14T19:06:07.182Z,42.14
2018-01-14T19:09:08.232Z,42.38
2018-01-14T19:12:09.151Z,42.41
2018-01-14T19:15:10.159Z,42.36
2018-01-14T19:18:11.142Z,42.46
2018-01-14T19:21:12.179Z,42.51
2018-01-14T19:24:13.195Z,42.71
2018-01-14T19:27:14.162Z,42.78
2018-01-14T19:30:15.396Z,42.98
2018-01-14T19:33:16.328Z,42.44
2018-01-14T19:36:17.331Z,42.81
2018-01-14T19:39:18.299Z,42.96
2018-01-14T19:42:19.259Z,42.69
2018-01-14T19:45:20.265Z,42.98
2018-01-14T19:48:21.315Z,43.01
2018-01-14T19:51:22.364Z,43.04
2018-01-14T19:54:23.293Z,42.85
2018-01-14T19:57:24.303Z,43.02
2018-01-14T20:00:25.250Z,42.85
2018-01-14T20:03:26.410Z,42.69
2018-01-14T20:06:27.379Z,42.88
2018-01-14T20:09:28.383Z,43.16
2018-01-14T20:12:29.481Z,43.12
2018-01-14T20:15:30.413Z,43.15
2018-01-14T20:18:31.434Z,43.05
2018-01-14T20:21:32.391Z,42.80
2018-01-14T20:24:33.657Z,42.85
2018-01-14T20:27:34.567Z,42.64
2018-01-14T20:30:35.596Z,42.33
2018-01-14T20:33:36.561Z,43.00
2018-01-14T20:36:37.571Z,43.00
2018-01-14T20:39:38.632Z,42.66
2018-01-14T20:42:39.654Z,42.75
2018-01-14T20:45:40.630Z,43.24
2018-01-14T20:48:41.606Z,43.14
2018-01-14T20:51:42.895Z,43.44
2018-01-14T20:54:43.806Z,43.38
2018-01-14T20:57:44.864Z,42.99
2018-01-14T21:00:45.815Z,43.35
2018-01-14T21:03:46.879Z,43.04
2018-01-14T21:06:47.974Z,42.99
2018-01-14T21:09:48.886Z,43.44
2018-01-14T21:12:49.910Z,43.08
2018-01-14T21:15:50.807Z,43.32
2018-01-14T21:18:52.544Z,43.32
2018-01-14T21:21:53.510Z,43.74
2018-01-14T21:24:54.534Z,43.76
2018-01-14T21:27:55.502Z,43.82
2018-01-14T21:30:56.537Z,43.79
2018-01-14T21:33:57.515Z,43.44
2018-01-14T21:36:58.447Z,43.67
2018-01-14T21:39:59.406Z,43.32
2018-01-14T21:43:00.343Z,43.64
2018-01-14T21:46:01.382Z,43.43
2018-01-14T21:49:02.295Z,43.61
2018-01-14T21:52:03.825Z,43.51
2018-01-14T21:55:04.819Z,43.33
2018-01-14T21:58:05.848Z,43.55
2018-01-14T22:01:06.799Z,43.33
2018-01-14T22:04:07.831Z,43.59
2018-01-14T22:07:08.798Z,43.25
2018-01-14T22:10:09.740Z,43.23
2018-01-14T22:13:10.736Z,43.44
2018-01-14T22:16:11.775Z,43.63
2018-01-14T22:19:12.763Z,43.44
2018-01-14T22:22:13.707Z,43.35
2018-01-14T22:25:14.695Z,43.54
2018-01-14T22:28:15.626Z,43.27
2018-01-14T22:31:16.627Z,43.35
2018-01-14T22:34:17.647Z,43.26
2018-01-14T22:37:18.659Z,43.72
2018-01-14T22:40:19.707Z,43.64
2018-01-14T22:43:20.732Z,43.43
2018-01-14T22:46:21.704Z,43.21
2018-01-14T22:49:22.687Z,43.39
2018-01-14T22:52:23.934Z,43.73
2018-01-14T22:55:24.955Z,43.63
2018-01-14T22:58:25.953Z,43.46
2018-01-14T23:01:26.983Z,43.25
2018-01-14T23:04:27.960Z,43.65
2018-01-14T23:07:28.991Z,43.36
2018-01-14T23:10:29.979Z,43.57
2018-01-14T23:13:30.999Z,43.67
2018-01-14T23:16:31.996Z,43.39
2018-01-14T23:19:32.947Z,43.73
2018-01-14T23:22:33.946Z,43.66
2018-01-14T23:25:34.951Z,43.41
2018-01-14T23:28:35.999Z,43.37
2018-01-14T23:31:36.955Z,43.56
2018-01-14T23:34:37.979Z,43.58
2018-01-14T23:37:38.970Z,43.25
2018-01-14T23:40:39.915Z,43.40
2018-01-14T23:43:40.894Z,43.66
2018-01-14T23:46:41.823Z,43.59
2018-01-14T23:49:42.851Z,43.22
2018-01-14T23:52:43.859Z,43.38
2018-01-14T23:55:44.886Z,43.15
2018-01-14T23:58:45.878Z,43.12
